sensor_id;sensor_type;location;lat;lon;timestamp;P1;durP1;ratioP1;P2;durP2;ratioP2
76176;SDS011;64938;47.696;8.066;2024-02-04T00:01:26;1.27;;;1.17;;
76176;SDS011;64938;47.696;8.066;2024-02-04T00:03:52;1.40;;;1.30;;
76176;SDS011;64938;47.696;8.066;2024-02-04T00:06:18;1.43;;;0.93;;
76176;SDS011;64938;47.696;8.066;2024-02-04T00:08:43;1.17;;;0.93;;
76176;SDS011;64938;47.696;8.066;2024-02-04T00:11:09;0.87;;;0.80;;
76176;SDS011;64938;47.696;8.066;2024-02-04T00:13:37;1.20;;;1.10;;
76176;SDS011;64938;47.696;8.066;2024-02-04T00:16:04;4.00;;;0.90;;
76176;SDS011;64938;47.696;8.066;2024-02-04T00:18:30;1.30;;;0.90;;
76176;SDS011;64938;47.696;8.066;2024-02-04T00:20:57;0.80;;;0.80;;
76176;SDS011;64938;47.696;8.066;2024-02-04T00:23:23;3.33;;;1.20;;
76176;SDS011;64938;47.696;8.066;2024-02-04T00:25:49;1.03;;;0.93;;
76176;SDS011;64938;47.696;8.066;2024-02-04T00:28:15;4.40;;;1.20;;
76176;SDS011;64938;47.696;8.066;2024-02-04T00:30:41;2.70;;;1.33;;
76176;SDS011;64938;47.696;8.066;2024-02-04T00:33:07;1.73;;;1.53;;
76176;SDS011;64938;47.696;8.066;2024-02-04T00:35:33;1.60;;;1.30;;
76176;SDS011;64938;47.696;8.066;2024-02-04T00:38:00;2.20;;;1.23;;
76176;SDS011;64938;47.696;8.066;2024-02-04T00:40:28;1.97;;;1.00;;
76176;SDS011;64938;47.696;8.066;2024-02-04T00:42:54;1.60;;;1.50;;
76176;SDS011;64938;47.696;8.066;2024-02-04T00:45:20;1.43;;;1.00;;
76176;SDS011;64938;47.696;8.066;2024-02-04T00:47:46;3.23;;;1.10;;
76176;SDS011;64938;47.696;8.066;2024-02-04T00:50:12;17.13;;;2.30;;
76176;SDS011;64938;47.696;8.066;2024-02-04T00:52:38;19.87;;;2.20;;
76176;SDS011;64938;47.696;8.066;2024-02-04T00:55:04;6.47;;;1.23;;
76176;SDS011;64938;47.696;8.066;2024-02-04T00:57:30;16.87;;;2.10;;
76176;SDS011;64938;47.696;8.066;2024-02-04T00:59:56;22.83;;;3.10;;
76176;SDS011;64938;47.696;8.066;2024-02-04T01:02:22;10.70;;;1.63;;
76176;SDS011;64938;47.696;8.066;2024-02-04T01:04:48;20.70;;;1.90;;
76176;SDS011;64938;47.696;8.066;2024-02-04T01:07:15;28.07;;;2.80;;
76176;SDS011;64938;47.696;8.066;2024-02-04T01:09:41;23.50;;;3.40;;
76176;SDS011;64938;47.696;8.066;2024-02-04T01:12:07;36.97;;;2.90;;
76176;SDS011;64938;47.696;8.066;2024-02-04T01:14:34;30.50;;;2.90;;
76176;SDS011;64938;47.696;8.066;2024-02-04T01:17:00;15.30;;;1.30;;
76176;SDS011;64938;47.696;8.066;2024-02-04T01:19:26;8.63;;;1.50;;
76176;SDS011;64938;47.696;8.066;2024-02-04T01:21:52;20.47;;;2.50;;
76176;SDS011;64938;47.696;8.066;2024-02-04T01:24:17;23.77;;;1.90;;
76176;SDS011;64938;47.696;8.066;2024-02-04T01:26:47;33.70;;;3.00;;
76176;SDS011;64938;47.696;8.066;2024-02-04T01:29:13;54.73;;;3.67;;
76176;SDS011;64938;47.696;8.066;2024-02-04T01:31:38;71.77;;;7.00;;
76176;SDS011;64938;47.696;8.066;2024-02-04T01:34:04;88.57;;;4.57;;
76176;SDS011;64938;47.696;8.066;2024-02-04T01:36:30;61.30;;;3.93;;
76176;SDS011;64938;47.696;8.066;2024-02-04T01:38:56;79.53;;;4.87;;
76176;SDS011;64938;47.696;8.066;2024-02-04T01:41:22;59.27;;;4.40;;
76176;SDS011;64938;47.696;8.066;2024-02-04T01:43:50;114.63;;;6.27;;
76176;SDS011;64938;47.696;8.066;2024-02-04T01:46:16;102.77;;;5.67;;
76176;SDS011;64938;47.696;8.066;2024-02-04T01:48:42;163.87;;;8.30;;
76176;SDS011;64938;47.696;8.066;2024-02-04T01:51:08;118.67;;;6.30;;
76176;SDS011;64938;47.696;8.066;2024-02-04T01:53:35;106.23;;;6.07;;
76176;SDS011;64938;47.696;8.066;2024-02-04T01:56:02;85.47;;;5.10;;
76176;SDS011;64938;47.696;8.066;2024-02-04T01:58:29;128.20;;;7.33;;
76176;SDS011;64938;47.696;8.066;2024-02-04T02:00:55;105.87;;;6.60;;
76176;SDS011;64938;47.696;8.066;2024-02-04T02:03:21;84.90;;;5.53;;
76176;SDS011;64938;47.696;8.066;2024-02-04T02:05:48;87.63;;;4.83;;
76176;SDS011;64938;47.696;8.066;2024-02-04T02:08:14;62.60;;;6.20;;
76176;SDS011;64938;47.696;8.066;2024-02-04T02:10:41;93.60;;;5.20;;
76176;SDS011;64938;47.696;8.066;2024-02-04T02:13:14;78.30;;;5.20;;
76176;SDS011;64938;47.696;8.066;2024-02-04T02:15:45;74.53;;;5.20;;
76176;SDS011;64938;47.696;8.066;2024-02-04T02:18:16;70.27;;;4.70;;
76176;SDS011;64938;47.696;8.066;2024-02-04T02:23:48;39.40;;;3.07;;
76176;SDS011;64938;47.696;8.066;2024-02-04T02:26:19;34.27;;;2.27;;
76176;SDS011;64938;47.696;8.066;2024-02-04T02:28:45;64.83;;;4.07;;
76176;SDS011;64938;47.696;8.066;2024-02-04T02:31:11;13.27;;;1.67;;
76176;SDS011;64938;47.696;8.066;2024-02-04T02:33:37;45.07;;;2.87;;
76176;SDS011;64938;47.696;8.066;2024-02-04T02:36:04;39.60;;;2.97;;
76176;SDS011;64938;47.696;8.066;2024-02-04T02:38:33;55.50;;;3.70;;
76176;SDS011;64938;47.696;8.066;2024-02-04T02:41:21;51.73;;;4.13;;
76176;SDS011;64938;47.696;8.066;2024-02-04T02:43:48;39.10;;;3.03;;
76176;SDS011;64938;47.696;8.066;2024-02-04T02:46:15;89.13;;;5.23;;
76176;SDS011;64938;47.696;8.066;2024-02-04T02:48:41;47.40;;;3.50;;
76176;SDS011;64938;47.696;8.066;2024-02-04T02:51:07;51.27;;;3.40;;
76176;SDS011;64938;47.696;8.066;2024-02-04T02:53:36;55.30;;;2.23;;
76176;SDS011;64938;47.696;8.066;2024-02-04T02:56:02;25.47;;;2.30;;
76176;SDS011;64938;47.696;8.066;2024-02-04T02:58:29;63.07;;;3.90;;
76176;SDS011;64938;47.696;8.066;2024-02-04T03:00:54;59.07;;;4.57;;
76176;SDS011;64938;47.696;8.066;2024-02-04T03:03:20;21.97;;;2.10;;
76176;SDS011;64938;47.696;8.066;2024-02-04T03:05:46;24.60;;;3.00;;
76176;SDS011;64938;47.696;8.066;2024-02-04T03:08:12;32.47;;;3.00;;
76176;SDS011;64938;47.696;8.066;2024-02-04T03:10:38;25.40;;;2.33;;
76176;SDS011;64938;47.696;8.066;2024-02-04T03:13:04;44.03;;;3.33;;
76176;SDS011;64938;47.696;8.066;2024-02-04T03:15:30;40.70;;;3.43;;
76176;SDS011;64938;47.696;8.066;2024-02-04T03:17:56;22.57;;;2.33;;
76176;SDS011;64938;47.696;8.066;2024-02-04T03:20:22;37.50;;;2.73;;
76176;SDS011;64938;47.696;8.066;2024-02-04T03:22:48;34.97;;;3.20;;
76176;SDS011;64938;47.696;8.066;2024-02-04T03:25:15;27.10;;;4.13;;
76176;SDS011;64938;47.696;8.066;2024-02-04T03:27:41;46.33;;;3.23;;
76176;SDS011;64938;47.696;8.066;2024-02-04T03:32:54;37.60;;;3.13;;
76176;SDS011;64938;47.696;8.066;2024-02-04T03:35:20;39.97;;;2.33;;
76176;SDS011;64938;47.696;8.066;2024-02-04T03:37:46;83.37;;;4.90;;
76176;SDS011;64938;47.696;8.066;2024-02-04T03:40:12;44.53;;;2.87;;
76176;SDS011;64938;47.696;8.066;2024-02-04T03:42:38;48.17;;;3.53;;
76176;SDS011;64938;47.696;8.066;2024-02-04T03:45:06;55.13;;;4.30;;
76176;SDS011;64938;47.696;8.066;2024-02-04T03:47:32;59.23;;;3.63;;
76176;SDS011;64938;47.696;8.066;2024-02-04T03:49:58;91.53;;;4.60;;
76176;SDS011;64938;47.696;8.066;2024-02-04T03:52:24;16.73;;;1.53;;
76176;SDS011;64938;47.696;8.066;2024-02-04T03:54:49;35.13;;;2.40;;
76176;SDS011;64938;47.696;8.066;2024-02-04T03:57:15;70.37;;;3.97;;
76176;SDS011;64938;47.696;8.066;2024-02-04T03:59:44;53.03;;;3.07;;
76176;SDS011;64938;47.696;8.066;2024-02-04T04:02:11;56.73;;;4.00;;
76176;SDS011;64938;47.696;8.066;2024-02-04T04:04:39;97.33;;;4.27;;
76176;SDS011;64938;47.696;8.066;2024-02-04T04:07:07;60.33;;;4.00;;
76176;SDS011;64938;47.696;8.066;2024-02-04T04:09:32;47.73;;;3.60;;
76176;SDS011;64938;47.696;8.066;2024-02-04T04:11:58;67.80;;;4.33;;
76176;SDS011;64938;47.696;8.066;2024-02-04T04:14:24;55.53;;;4.37;;
76176;SDS011;64938;47.696;8.066;2024-02-04T04:16:50;55.77;;;3.23;;
76176;SDS011;64938;47.696;8.066;2024-02-04T04:19:17;69.23;;;4.23;;
76176;SDS011;64938;47.696;8.066;2024-02-04T04:21:42;68.70;;;3.47;;
76176;SDS011;64938;47.696;8.066;2024-02-04T04:24:08;78.20;;;3.43;;
76176;SDS011;64938;47.696;8.066;2024-02-04T04:26:34;34.60;;;3.53;;
76176;SDS011;64938;47.696;8.066;2024-02-04T04:29:00;45.57;;;2.73;;
76176;SDS011;64938;47.696;8.066;2024-02-04T04:31:26;47.93;;;3.50;;
76176;SDS011;64938;47.696;8.066;2024-02-04T04:33:52;74.53;;;4.63;;
76176;SDS011;64938;47.696;8.066;2024-02-04T04:36:18;23.57;;;2.00;;
76176;SDS011;64938;47.696;8.066;2024-02-04T04:38:44;49.57;;;2.90;;
76176;SDS011;64938;47.696;8.066;2024-02-04T04:41:10;32.23;;;2.10;;
76176;SDS011;64938;47.696;8.066;2024-02-04T04:43:36;33.80;;;2.70;;
76176;SDS011;64938;47.696;8.066;2024-02-04T04:46:03;23.10;;;1.93;;
76176;SDS011;64938;47.696;8.066;2024-02-04T04:48:30;20.67;;;2.33;;
76176;SDS011;64938;47.696;8.066;2024-02-04T04:50:55;13.77;;;1.50;;
76176;SDS011;64938;47.696;8.066;2024-02-04T04:53:21;25.63;;;2.23;;
76176;SDS011;64938;47.696;8.066;2024-02-04T04:55:47;14.03;;;1.70;;
76176;SDS011;64938;47.696;8.066;2024-02-04T04:58:13;34.37;;;2.10;;
76176;SDS011;64938;47.696;8.066;2024-02-04T05:00:39;14.30;;;1.33;;
76176;SDS011;64938;47.696;8.066;2024-02-04T05:03:05;19.27;;;1.43;;
76176;SDS011;64938;47.696;8.066;2024-02-04T05:05:31;39.13;;;4.37;;
76176;SDS011;64938;47.696;8.066;2024-02-04T05:07:56;40.03;;;2.70;;
76176;SDS011;64938;47.696;8.066;2024-02-04T05:10:22;24.53;;;2.10;;
76176;SDS011;64938;47.696;8.066;2024-02-04T05:12:48;34.00;;;1.80;;
76176;SDS011;64938;47.696;8.066;2024-02-04T05:15:15;34.33;;;2.60;;
76176;SDS011;64938;47.696;8.066;2024-02-04T05:17:41;40.23;;;3.00;;
76176;SDS011;64938;47.696;8.066;2024-02-04T05:20:07;36.50;;;2.70;;
76176;SDS011;64938;47.696;8.066;2024-02-04T05:22:33;30.00;;;2.50;;
76176;SDS011;64938;47.696;8.066;2024-02-04T05:24:59;13.13;;;1.90;;
76176;SDS011;64938;47.696;8.066;2024-02-04T05:27:25;9.70;;;1.13;;
76176;SDS011;64938;47.696;8.066;2024-02-04T05:29:51;33.17;;;2.23;;
76176;SDS011;64938;47.696;8.066;2024-02-04T05:32:17;43.10;;;3.07;;
76176;SDS011;64938;47.696;8.066;2024-02-04T05:34:43;27.13;;;2.50;;
76176;SDS011;64938;47.696;8.066;2024-02-04T05:37:09;18.57;;;2.00;;
76176;SDS011;64938;47.696;8.066;2024-02-04T05:39:35;11.70;;;1.40;;
76176;SDS011;64938;47.696;8.066;2024-02-04T05:42:01;10.20;;;1.23;;
76176;SDS011;64938;47.696;8.066;2024-02-04T05:44:26;12.77;;;1.70;;
76176;SDS011;64938;47.696;8.066;2024-02-04T05:46:52;30.90;;;2.40;;
76176;SDS011;64938;47.696;8.066;2024-02-04T05:49:18;9.90;;;1.40;;
76176;SDS011;64938;47.696;8.066;2024-02-04T05:51:44;7.73;;;1.20;;
76176;SDS011;64938;47.696;8.066;2024-02-04T05:54:10;13.97;;;1.40;;
76176;SDS011;64938;47.696;8.066;2024-02-04T05:56:36;2.47;;;0.90;;
76176;SDS011;64938;47.696;8.066;2024-02-04T05:59:02;6.17;;;1.50;;
76176;SDS011;64938;47.696;8.066;2024-02-04T06:01:28;26.13;;;2.20;;
76176;SDS011;64938;47.696;8.066;2024-02-04T06:03:54;18.70;;;1.60;;
76176;SDS011;64938;47.696;8.066;2024-02-04T06:06:20;11.70;;;1.73;;
76176;SDS011;64938;47.696;8.066;2024-02-04T06:08:46;2.47;;;1.20;;
76176;SDS011;64938;47.696;8.066;2024-02-04T06:11:13;2.80;;;1.10;;
76176;SDS011;64938;47.696;8.066;2024-02-04T06:13:39;3.47;;;1.20;;
76176;SDS011;64938;47.696;8.066;2024-02-04T06:16:06;2.40;;;1.17;;
76176;SDS011;64938;47.696;8.066;2024-02-04T06:18:32;32.73;;;2.60;;
76176;SDS011;64938;47.696;8.066;2024-02-04T06:20:58;7.67;;;1.77;;
76176;SDS011;64938;47.696;8.066;2024-02-04T06:23:24;5.23;;;1.63;;
76176;SDS011;64938;47.696;8.066;2024-02-04T06:25:50;7.60;;;1.13;;
76176;SDS011;64938;47.696;8.066;2024-02-04T06:28:16;23.03;;;2.43;;
76176;SDS011;64938;47.696;8.066;2024-02-04T06:30:41;10.33;;;1.80;;
76176;SDS011;64938;47.696;8.066;2024-02-04T06:33:07;10.70;;;1.33;;
76176;SDS011;64938;47.696;8.066;2024-02-04T06:35:33;2.43;;;1.13;;
76176;SDS011;64938;47.696;8.066;2024-02-04T06:38:00;9.17;;;1.67;;
76176;SDS011;64938;47.696;8.066;2024-02-04T06:40:29;9.83;;;1.33;;
76176;SDS011;64938;47.696;8.066;2024-02-04T06:42:54;3.83;;;1.23;;
76176;SDS011;64938;47.696;8.066;2024-02-04T06:45:20;9.87;;;1.47;;
76176;SDS011;64938;47.696;8.066;2024-02-04T06:47:46;2.33;;;1.00;;
76176;SDS011;64938;47.696;8.066;2024-02-04T06:50:12;31.07;;;2.70;;
76176;SDS011;64938;47.696;8.066;2024-02-04T06:52:39;6.17;;;2.23;;
76176;SDS011;64938;47.696;8.066;2024-02-04T06:55:07;2.03;;;1.50;;
76176;SDS011;64938;47.696;8.066;2024-02-04T06:57:33;8.50;;;1.30;;
76176;SDS011;64938;47.696;8.066;2024-02-04T06:59:59;5.47;;;1.10;;
76176;SDS011;64938;47.696;8.066;2024-02-04T07:02:25;11.00;;;1.60;;
76176;SDS011;64938;47.696;8.066;2024-02-04T07:04:52;8.80;;;1.03;;
76176;SDS011;64938;47.696;8.066;2024-02-04T07:07:18;21.13;;;1.70;;
76176;SDS011;64938;47.696;8.066;2024-02-04T07:09:44;5.30;;;1.13;;
76176;SDS011;64938;47.696;8.066;2024-02-04T07:12:09;8.20;;;1.40;;
76176;SDS011;64938;47.696;8.066;2024-02-04T07:14:38;12.13;;;1.20;;
76176;SDS011;64938;47.696;8.066;2024-02-04T07:17:04;12.60;;;1.47;;
76176;SDS011;64938;47.696;8.066;2024-02-04T07:19:30;15.23;;;1.73;;
76176;SDS011;64938;47.696;8.066;2024-02-04T07:21:56;19.17;;;1.93;;
76176;SDS011;64938;47.696;8.066;2024-02-04T07:24:22;6.00;;;0.90;;
76176;SDS011;64938;47.696;8.066;2024-02-04T07:26:48;4.03;;;1.20;;
76176;SDS011;64938;47.696;8.066;2024-02-04T07:29:14;23.00;;;2.17;;
76176;SDS011;64938;47.696;8.066;2024-02-04T07:31:42;30.53;;;2.30;;
76176;SDS011;64938;47.696;8.066;2024-02-04T07:34:08;15.10;;;1.60;;
76176;SDS011;64938;47.696;8.066;2024-02-04T07:36:34;20.83;;;2.17;;
76176;SDS011;64938;47.696;8.066;2024-02-04T07:39:00;7.83;;;1.07;;
76176;SDS011;64938;47.696;8.066;2024-02-04T07:41:30;6.93;;;1.10;;
76176;SDS011;64938;47.696;8.066;2024-02-04T07:43:56;22.80;;;1.63;;
76176;SDS011;64938;47.696;8.066;2024-02-04T07:46:23;32.70;;;2.60;;
76176;SDS011;64938;47.696;8.066;2024-02-04T07:48:49;14.97;;;1.60;;
76176;SDS011;64938;47.696;8.066;2024-02-04T07:51:14;4.13;;;1.00;;
76176;SDS011;64938;47.696;8.066;2024-02-04T07:53:40;8.87;;;1.50;;
76176;SDS011;64938;47.696;8.066;2024-02-04T07:56:06;16.87;;;1.40;;
76176;SDS011;64938;47.696;8.066;2024-02-04T07:58:33;14.23;;;1.30;;
76176;SDS011;64938;47.696;8.066;2024-02-04T08:00:59;14.27;;;1.20;;
76176;SDS011;64938;47.696;8.066;2024-02-04T08:03:25;23.03;;;1.80;;
76176;SDS011;64938;47.696;8.066;2024-02-04T08:05:50;13.73;;;1.57;;
76176;SDS011;64938;47.696;8.066;2024-02-04T08:08:16;21.33;;;2.07;;
76176;SDS011;64938;47.696;8.066;2024-02-04T08:10:42;11.27;;;1.50;;
76176;SDS011;64938;47.696;8.066;2024-02-04T08:13:08;10.23;;;1.27;;
76176;SDS011;64938;47.696;8.066;2024-02-04T08:15:34;5.53;;;1.27;;
76176;SDS011;64938;47.696;8.066;2024-02-04T08:18:00;2.00;;;0.97;;
76176;SDS011;64938;47.696;8.066;2024-02-04T08:20:26;2.23;;;0.80;;
76176;SDS011;64938;47.696;8.066;2024-02-04T08:22:51;1.87;;;0.63;;
76176;SDS011;64938;47.696;8.066;2024-02-04T08:25:17;0.40;;;0.40;;
76176;SDS011;64938;47.696;8.066;2024-02-04T08:27:43;2.90;;;0.60;;
76176;SDS011;64938;47.696;8.066;2024-02-04T08:30:11;0.80;;;0.60;;
76176;SDS011;64938;47.696;8.066;2024-02-04T08:32:38;1.00;;;0.50;;
76176;SDS011;64938;47.696;8.066;2024-02-04T08:35:04;0.90;;;0.57;;
76176;SDS011;64938;47.696;8.066;2024-02-04T08:37:31;2.90;;;0.70;;
76176;SDS011;64938;47.696;8.066;2024-02-04T08:39:58;3.47;;;0.70;;
76176;SDS011;64938;47.696;8.066;2024-02-04T08:42:24;0.40;;;0.40;;
76176;SDS011;64938;47.696;8.066;2024-02-04T08:44:50;5.13;;;0.80;;
76176;SDS011;64938;47.696;8.066;2024-02-04T08:47:16;0.60;;;0.60;;
76176;SDS011;64938;47.696;8.066;2024-02-04T08:49:42;1.50;;;0.50;;
76176;SDS011;64938;47.696;8.066;2024-02-04T08:52:08;2.30;;;0.70;;
76176;SDS011;64938;47.696;8.066;2024-02-04T08:54:34;0.90;;;0.60;;
76176;SDS011;64938;47.696;8.066;2024-02-04T08:57:00;0.40;;;0.40;;
76176;SDS011;64938;47.696;8.066;2024-02-04T08:59:26;0.60;;;0.60;;
76176;SDS011;64938;47.696;8.066;2024-02-04T09:01:52;0.40;;;0.40;;
76176;SDS011;64938;47.696;8.066;2024-02-04T09:04:19;0.87;;;0.50;;
76176;SDS011;64938;47.696;8.066;2024-02-04T09:06:45;0.80;;;0.40;;
76176;SDS011;64938;47.696;8.066;2024-02-04T09:09:11;1.60;;;0.70;;
76176;SDS011;64938;47.696;8.066;2024-02-04T09:11:36;2.60;;;0.50;;
76176;SDS011;64938;47.696;8.066;2024-02-04T09:14:02;0.50;;;0.50;;
76176;SDS011;64938;47.696;8.066;2024-02-04T09:16:29;0.50;;;0.50;;
76176;SDS011;64938;47.696;8.066;2024-02-04T09:18:55;0.50;;;0.50;;
76176;SDS011;64938;47.696;8.066;2024-02-04T09:21:21;0.60;;;0.60;;
76176;SDS011;64938;47.696;8.066;2024-02-04T09:23:47;0.53;;;0.53;;
76176;SDS011;64938;47.696;8.066;2024-02-04T09:26:13;0.50;;;0.50;;
76176;SDS011;64938;47.696;8.066;2024-02-04T09:28:39;0.50;;;0.50;;
76176;SDS011;64938;47.696;8.066;2024-02-04T09:31:08;0.57;;;0.40;;
76176;SDS011;64938;47.696;8.066;2024-02-04T09:33:34;0.80;;;0.50;;
76176;SDS011;64938;47.696;8.066;2024-02-04T09:36:01;0.50;;;0.40;;
76176;SDS011;64938;47.696;8.066;2024-02-04T09:38:27;0.60;;;0.60;;
76176;SDS011;64938;47.696;8.066;2024-02-04T09:40:53;0.60;;;0.60;;
76176;SDS011;64938;47.696;8.066;2024-02-04T09:43:19;0.80;;;0.80;;
76176;SDS011;64938;47.696;8.066;2024-02-04T09:45:45;0.60;;;0.50;;
76176;SDS011;64938;47.696;8.066;2024-02-04T09:48:11;0.40;;;0.40;;
76176;SDS011;64938;47.696;8.066;2024-02-04T09:50:37;0.50;;;0.50;;
76176;SDS011;64938;47.696;8.066;2024-02-04T09:53:03;0.50;;;0.50;;
76176;SDS011;64938;47.696;8.066;2024-02-04T09:55:33;0.60;;;0.50;;
76176;SDS011;64938;47.696;8.066;2024-02-04T09:57:59;0.70;;;0.70;;
76176;SDS011;64938;47.696;8.066;2024-02-04T10:00:27;0.60;;;0.47;;
76176;SDS011;64938;47.696;8.066;2024-02-04T10:02:53;0.50;;;0.40;;
76176;SDS011;64938;47.696;8.066;2024-02-04T10:05:19;0.50;;;0.40;;
76176;SDS011;64938;47.696;8.066;2024-02-04T10:07:45;0.77;;;0.40;;
76176;SDS011;64938;47.696;8.066;2024-02-04T10:10:11;0.50;;;0.40;;
76176;SDS011;64938;47.696;8.066;2024-02-04T10:12:37;0.83;;;0.50;;
76176;SDS011;64938;47.696;8.066;2024-02-04T10:15:04;0.60;;;0.60;;
76176;SDS011;64938;47.696;8.066;2024-02-04T10:17:31;0.97;;;0.67;;
76176;SDS011;64938;47.696;8.066;2024-02-04T10:19:57;0.50;;;0.50;;
76176;SDS011;64938;47.696;8.066;2024-02-04T10:22:25;0.50;;;0.40;;
76176;SDS011;64938;47.696;8.066;2024-02-04T10:24:52;0.50;;;0.50;;
76176;SDS011;64938;47.696;8.066;2024-02-04T10:27:18;0.40;;;0.40;;
76176;SDS011;64938;47.696;8.066;2024-02-04T10:29:45;0.40;;;0.40;;
76176;SDS011;64938;47.696;8.066;2024-02-04T10:32:11;1.23;;;0.43;;
76176;SDS011;64938;47.696;8.066;2024-02-04T10:34:38;0.70;;;0.60;;
76176;SDS011;64938;47.696;8.066;2024-02-04T10:37:04;0.50;;;0.40;;
76176;SDS011;64938;47.696;8.066;2024-02-04T10:39:33;0.43;;;0.43;;
76176;SDS011;64938;47.696;8.066;2024-02-04T10:42:01;0.50;;;0.47;;
76176;SDS011;64938;47.696;8.066;2024-02-04T10:44:29;0.50;;;0.40;;
76176;SDS011;64938;47.696;8.066;2024-02-04T10:47:02;0.60;;;0.47;;
76176;SDS011;64938;47.696;8.066;2024-02-04T10:49:32;1.03;;;0.90;;
76176;SDS011;64938;47.696;8.066;2024-02-04T10:51:59;1.20;;;1.10;;
76176;SDS011;64938;47.696;8.066;2024-02-04T10:54:25;0.60;;;0.60;;
76176;SDS011;64938;47.696;8.066;2024-02-04T10:56:55;0.50;;;0.50;;
76176;SDS011;64938;47.696;8.066;2024-02-04T10:59:22;0.60;;;0.60;;
76176;SDS011;64938;47.696;8.066;2024-02-04T11:01:48;0.57;;;0.57;;
76176;SDS011;64938;47.696;8.066;2024-02-04T11:04:14;0.60;;;0.60;;
76176;SDS011;64938;47.696;8.066;2024-02-04T11:06:42;0.80;;;0.57;;
76176;SDS011;64938;47.696;8.066;2024-02-04T11:09:09;0.57;;;0.57;;
76176;SDS011;64938;47.696;8.066;2024-02-04T11:11:37;0.60;;;0.50;;
76176;SDS011;64938;47.696;8.066;2024-02-04T11:14:04;0.50;;;0.50;;
76176;SDS011;64938;47.696;8.066;2024-02-04T11:16:43;0.50;;;0.50;;
76176;SDS011;64938;47.696;8.066;2024-02-04T11:27:45;0.70;;;0.50;;
76176;SDS011;64938;47.696;8.066;2024-02-04T11:30:11;0.60;;;0.50;;
76176;SDS011;64938;47.696;8.066;2024-02-04T11:32:37;1.23;;;0.57;;
76176;SDS011;64938;47.696;8.066;2024-02-04T11:35:03;0.50;;;0.50;;
76176;SDS011;64938;47.696;8.066;2024-02-04T11:37:32;0.50;;;0.50;;
76176;SDS011;64938;47.696;8.066;2024-02-04T11:39:58;0.40;;;0.40;;
76176;SDS011;64938;47.696;8.066;2024-02-04T11:42:24;0.60;;;0.60;;
76176;SDS011;64938;47.696;8.066;2024-02-04T11:44:50;0.50;;;0.50;;
76176;SDS011;64938;47.696;8.066;2024-02-04T11:47:33;0.80;;;0.50;;
76176;SDS011;64938;47.696;8.066;2024-02-04T11:50:00;1.13;;;0.70;;
76176;SDS011;64938;47.696;8.066;2024-02-04T11:52:28;0.50;;;0.50;;
76176;SDS011;64938;47.696;8.066;2024-02-04T11:54:54;1.13;;;0.60;;
76176;SDS011;64938;47.696;8.066;2024-02-04T11:57:21;0.60;;;0.60;;
76176;SDS011;64938;47.696;8.066;2024-02-04T11:59:47;0.67;;;0.67;;
76176;SDS011;64938;47.696;8.066;2024-02-04T12:02:16;1.13;;;0.60;;
76176;SDS011;64938;47.696;8.066;2024-02-04T12:04:43;1.17;;;1.17;;
76176;SDS011;64938;47.696;8.066;2024-02-04T12:07:09;1.40;;;0.50;;
76176;SDS011;64938;47.696;8.066;2024-02-04T12:09:35;1.30;;;0.63;;
76176;SDS011;64938;47.696;8.066;2024-02-04T12:12:02;1.53;;;0.73;;
76176;SDS011;64938;47.696;8.066;2024-02-04T12:14:28;0.63;;;0.47;;
76176;SDS011;64938;47.696;8.066;2024-02-04T12:16:56;1.33;;;0.50;;
76176;SDS011;64938;47.696;8.066;2024-02-04T12:19:23;0.60;;;0.60;;
76176;SDS011;64938;47.696;8.066;2024-02-04T12:21:49;1.10;;;1.10;;
76176;SDS011;64938;47.696;8.066;2024-02-04T12:24:15;0.83;;;0.60;;
76176;SDS011;64938;47.696;8.066;2024-02-04T12:26:42;1.10;;;0.70;;
76176;SDS011;64938;47.696;8.066;2024-02-04T12:29:10;1.40;;;1.00;;
76176;SDS011;64938;47.696;8.066;2024-02-04T12:31:37;1.57;;;0.60;;
76176;SDS011;64938;47.696;8.066;2024-02-04T12:34:04;2.17;;;0.80;;
76176;SDS011;64938;47.696;8.066;2024-02-04T12:36:31;1.23;;;0.70;;
76176;SDS011;64938;47.696;8.066;2024-02-04T12:38:59;0.90;;;0.60;;
76176;SDS011;64938;47.696;8.066;2024-02-04T12:41:26;2.40;;;0.70;;
76176;SDS011;64938;47.696;8.066;2024-02-04T12:43:54;2.13;;;0.90;;
76176;SDS011;64938;47.696;8.066;2024-02-04T12:46:22;0.93;;;0.50;;
76176;SDS011;64938;47.696;8.066;2024-02-04T12:48:51;2.17;;;0.60;;
76176;SDS011;64938;47.696;8.066;2024-02-04T12:51:34;1.30;;;0.77;;
76176;SDS011;64938;47.696;8.066;2024-02-04T12:56:41;1.10;;;0.70;;
76176;SDS011;64938;47.696;8.066;2024-02-04T12:59:24;1.87;;;0.70;;
76176;SDS011;64938;47.696;8.066;2024-02-04T13:01:52;1.47;;;1.00;;
76176;SDS011;64938;47.696;8.066;2024-02-04T13:04:19;2.23;;;1.63;;
76176;SDS011;64938;47.696;8.066;2024-02-04T13:06:49;2.97;;;1.27;;
76176;SDS011;64938;47.696;8.066;2024-02-04T13:09:16;1.93;;;0.70;;
76176;SDS011;64938;47.696;8.066;2024-02-04T13:11:42;0.70;;;0.70;;
76176;SDS011;64938;47.696;8.066;2024-02-04T13:14:08;0.67;;;0.60;;
76176;SDS011;64938;47.696;8.066;2024-02-04T13:16:34;1.97;;;0.83;;
76176;SDS011;64938;47.696;8.066;2024-02-04T13:19:02;1.63;;;0.90;;
76176;SDS011;64938;47.696;8.066;2024-02-04T13:21:28;4.10;;;0.80;;
76176;SDS011;64938;47.696;8.066;2024-02-04T13:23:54;1.90;;;0.90;;
76176;SDS011;64938;47.696;8.066;2024-02-04T13:26:20;2.60;;;0.90;;
76176;SDS011;64938;47.696;8.066;2024-02-04T13:28:46;4.20;;;1.10;;
76176;SDS011;64938;47.696;8.066;2024-02-04T13:31:12;5.47;;;1.93;;
76176;SDS011;64938;47.696;8.066;2024-02-04T13:33:38;4.13;;;1.53;;
76176;SDS011;64938;47.696;8.066;2024-02-04T13:36:05;1.73;;;1.07;;
76176;SDS011;64938;47.696;8.066;2024-02-04T13:38:33;3.80;;;1.20;;
76176;SDS011;64938;47.696;8.066;2024-02-04T13:41:00;3.00;;;0.97;;
76176;SDS011;64938;47.696;8.066;2024-02-04T13:43:27;5.03;;;1.10;;
76176;SDS011;64938;47.696;8.066;2024-02-04T13:45:53;3.70;;;1.30;;
76176;SDS011;64938;47.696;8.066;2024-02-04T13:48:19;1.53;;;0.90;;
76176;SDS011;64938;47.696;8.066;2024-02-04T13:50:47;4.47;;;1.27;;
76176;SDS011;64938;47.696;8.066;2024-02-04T13:53:13;4.10;;;1.30;;
76176;SDS011;64938;47.696;8.066;2024-02-04T13:55:39;5.77;;;1.30;;
76176;SDS011;64938;47.696;8.066;2024-02-04T13:58:05;2.30;;;1.17;;
76176;SDS011;64938;47.696;8.066;2024-02-04T14:00:31;4.53;;;1.20;;
76176;SDS011;64938;47.696;8.066;2024-02-04T14:02:57;2.87;;;1.50;;
76176;SDS011;64938;47.696;8.066;2024-02-04T14:05:23;4.33;;;2.07;;
76176;SDS011;64938;47.696;8.066;2024-02-04T14:07:50;3.30;;;1.40;;
76176;SDS011;64938;47.696;8.066;2024-02-04T14:10:16;3.63;;;1.13;;
76176;SDS011;64938;47.696;8.066;2024-02-04T14:12:42;5.10;;;1.40;;
76176;SDS011;64938;47.696;8.066;2024-02-04T14:15:11;1.80;;;1.03;;
76176;SDS011;64938;47.696;8.066;2024-02-04T14:17:37;2.50;;;1.20;;
76176;SDS011;64938;47.696;8.066;2024-02-04T14:20:04;3.03;;;1.10;;
76176;SDS011;64938;47.696;8.066;2024-02-04T14:22:31;3.33;;;1.00;;
76176;SDS011;64938;47.696;8.066;2024-02-04T14:24:57;2.87;;;1.30;;
76176;SDS011;64938;47.696;8.066;2024-02-04T14:27:25;7.00;;;1.80;;
76176;SDS011;64938;47.696;8.066;2024-02-04T14:29:51;3.63;;;1.30;;
76176;SDS011;64938;47.696;8.066;2024-02-04T14:32:16;6.60;;;1.53;;
76176;SDS011;64938;47.696;8.066;2024-02-04T14:34:44;2.50;;;1.17;;
76176;SDS011;64938;47.696;8.066;2024-02-04T14:37:10;4.00;;;1.53;;
76176;SDS011;64938;47.696;8.066;2024-02-04T14:39:37;4.47;;;1.30;;
76176;SDS011;64938;47.696;8.066;2024-02-04T14:42:03;3.53;;;1.40;;
76176;SDS011;64938;47.696;8.066;2024-02-04T14:44:29;5.47;;;1.30;;
76176;SDS011;64938;47.696;8.066;2024-02-04T14:46:55;2.53;;;1.20;;
76176;SDS011;64938;47.696;8.066;2024-02-04T14:49:21;2.70;;;1.27;;
76176;SDS011;64938;47.696;8.066;2024-02-04T14:51:47;2.33;;;1.10;;
76176;SDS011;64938;47.696;8.066;2024-02-04T14:54:13;2.23;;;1.03;;
76176;SDS011;64938;47.696;8.066;2024-02-04T14:56:39;4.40;;;1.30;;